Time;durP1;ratioP1;P1;durP2;ratioP2;P2;SDS_P1;SDS_P2;PMS_P1;PMS_P2;Temp;Humidity;BMP_temperature;BMP_pressure;BME280_temperature;BME280_humidity;BME280_pressure;Samples;Min_cycle;Max_cycle;Signal;HPM_P1;HPM_P2
2022/02/26 00:00:07;;;;;;;;;;;19.80;36.00;;;;;;5093332;28;19958;-67
2022/02/26 00:02:32;;;;;;;;;;;19.80;36.00;;;;;;5093413;28;19912;-68
2022/02/26 00:04:58;;;;;;;;;;;19.80;36.10;;;;;;5093481;28;19912;-68
2022/02/26 00:07:23;;;;;;;;;;;19.80;36.10;;;;;;5093603;28;19992;-68
2022/02/26 00:09:49;;;;;;;;;;;19.80;36.00;;;;;;5093441;28;19916;-67
2022/02/26 00:12:14;;;;;;;;;;;19.80;36.10;;;;;;5093241;28;19908;-68
2022/02/26 00:14:40;;;;;;;;;;;19.80;36.00;;;;;;5093281;28;19908;-67
2022/02/26 00:17:05;;;;;;;;;;;19.80;36.00;;;;;;5093027;28;19908;-68
2022/02/26 00:19:32;;;;;;;;;;;19.80;36.00;;;;;;5093066;28;19908;-68
2022/02/26 00:21:58;;;;;;;;;;;19.70;36.00;;;;;;5093248;28;19920;-67
2022/02/26 00:24:23;;;;;;;;;;;19.70;36.00;;;;;;5093182;28;19919;-67
2022/02/26 00:26:50;;;;;;;;;;;19.80;36.00;;;;;;5093249;28;19974;-67
2022/02/26 00:29:16;;;;;;;;;;;19.70;36.00;;;;;;5093042;28;20005;-68
2022/02/26 00:31:42;;;;;;;;;;;19.70;36.00;;;;;;5092968;28;19908;-68
2022/02/26 00:34:07;;;;;;;;;;;19.70;36.00;;;;;;5093043;28;19992;-68
2022/02/26 00:36:32;;;;;;;;;;;19.70;36.00;;;;;;5092896;28;19908;-67
2022/02/26 00:38:58;;;;;;;;;;;19.70;36.00;;;;;;5093007;28;19912;-68
2022/02/26 00:41:25;;;;;;;;;;;19.70;36.00;;;;;;5092921;28;19962;-68
2022/02/26 00:43:52;;;;;;;;;;;19.70;36.00;;;;;;5093027;28;20252;-68
2022/02/26 00:46:17;;;;;;;;;;;19.70;36.00;;;;;;5091892;28;20477;-67
2022/02/26 00:51:27;;;;;;;;;;;19.70;36.00;;;;;;5093435;28;19930;-68
2022/02/26 00:53:52;;;;;;;;;;;19.70;36.00;;;;;;5092913;28;19908;-68
2022/02/26 00:56:18;;;;;;;;;;;19.70;36.00;;;;;;5092585;28;19916;-68
2022/02/26 00:58:43;;;;;;;;;;;19.70;36.00;;;;;;5092619;28;19961;-68
2022/02/26 01:01:09;;;;;;;;;;;19.60;36.00;;;;;;5092541;28;19962;-68
2022/02/26 01:03:34;;;;;;;;;;;19.60;36.00;;;;;;5092560;28;19916;-68
2022/02/26 01:05:59;;;;;;;;;;;19.60;36.00;;;;;;5092655;28;19908;-67
2022/02/26 01:08:25;;;;;;;;;;;19.60;36.00;;;;;;5092663;28;20360;-68
2022/02/26 01:10:50;;;;;;;;;;;19.60;36.00;;;;;;5092603;28;19912;-68
2022/02/26 01:13:16;;;;;;;;;;;19.60;36.00;;;;;;5092365;28;19908;-68
2022/02/26 01:15:41;;;;;;;;;;;19.60;36.00;;;;;;5092760;28;19908;-67
2022/02/26 01:18:07;;;;;;;;;;;19.60;36.00;;;;;;5092847;28;20378;-67
2022/02/26 01:20:33;;;;;;;;;;;19.60;36.00;;;;;;5093024;28;19951;-67
2022/02/26 01:22:58;;;;;;;;;;;19.60;36.00;;;;;;5092862;28;19912;-67
2022/02/26 01:25:24;;;;;;;;;;;19.60;36.00;;;;;;5092916;28;20026;-68
2022/02/26 01:27:49;;;;;;;;;;;19.60;36.00;;;;;;5092844;28;20004;-68
2022/02/26 01:30:15;;;;;;;;;;;19.60;36.00;;;;;;5092897;28;19916;-68
2022/02/26 01:32:41;;;;;;;;;;;19.60;36.00;;;;;;5092985;28;19912;-67
2022/02/26 01:35:07;;;;;;;;;;;19.50;36.00;;;;;;5092902;28;19919;-67
2022/02/26 01:37:33;;;;;;;;;;;19.60;36.00;;;;;;5092631;28;19908;-67
2022/02/26 01:39:58;;;;;;;;;;;19.60;36.00;;;;;;5092755;28;20263;-68
2022/02/26 01:42:24;;;;;;;;;;;19.60;36.00;;;;;;5092616;28;19962;-68
2022/02/26 01:44:50;;;;;;;;;;;19.60;36.10;;;;;;5092844;28;20042;-67
2022/02/26 01:47:15;;;;;;;;;;;19.50;36.00;;;;;;5092872;28;19947;-68
2022/02/26 01:49:41;;;;;;;;;;;19.50;36.00;;;;;;5092556;28;19916;-67
2022/02/26 01:52:07;;;;;;;;;;;19.50;36.00;;;;;;5092765;28;19951;-68
2022/02/26 01:54:33;;;;;;;;;;;19.50;36.00;;;;;;5092662;28;20287;-68
2022/02/26 01:56:59;;;;;;;;;;;19.50;36.00;;;;;;5093444;28;19909;-67
2022/02/26 01:59:24;;;;;;;;;;;19.50;36.00;;;;;;5096318;28;19914;-68
2022/02/26 02:01:50;;;;;;;;;;;19.60;36.00;;;;;;5096422;28;20322;-68
2022/02/26 02:04:15;;;;;;;;;;;19.50;36.00;;;;;;5096331;28;19915;-67
2022/02/26 02:06:41;;;;;;;;;;;19.50;36.00;;;;;;5096250;28;20256;-67
2022/02/26 02:09:07;;;;;;;;;;;19.50;36.00;;;;;;5095968;28;19912;-68
2022/02/26 02:11:34;;;;;;;;;;;19.50;36.00;;;;;;5095958;28;19908;-68
2022/02/26 02:13:59;;;;;;;;;;;19.50;36.00;;;;;;5096065;28;19954;-68
2022/02/26 02:16:25;;;;;;;;;;;19.50;36.00;;;;;;5095923;28;19908;-68
2022/02/26 02:18:50;;;;;;;;;;;19.50;36.00;;;;;;5095835;28;19908;-68
2022/02/26 02:21:16;;;;;;;;;;;19.50;36.00;;;;;;5096216;28;19947;-67
2022/02/26 02:23:42;;;;;;;;;;;19.50;36.00;;;;;;5095743;28;19908;-68
2022/02/26 02:26:07;;;;;;;;;;;19.50;36.00;;;;;;5095734;28;19915;-68
2022/02/26 02:28:33;;;;;;;;;;;19.50;36.00;;;;;;5095540;28;19916;-68
2022/02/26 02:30:58;;;;;;;;;;;19.50;36.00;;;;;;5077380;28;19954;-68
2022/02/26 02:33:24;;;;;;;;;;;19.50;36.00;;;;;;5095746;28;19919;-68
2022/02/26 02:35:49;;;;;;;;;;;19.50;36.00;;;;;;5077188;28;20322;-67
2022/02/26 02:38:15;;;;;;;;;;;19.50;36.00;;;;;;5095183;28;19908;-68
2022/02/26 02:40:41;;;;;;;;;;;19.50;36.00;;;;;;5094994;28;19947;-67
2022/02/26 02:43:09;;;;;;;;;;;19.50;36.00;;;;;;5094929;28;19915;-67
2022/02/26 02:45:35;;;;;;;;;;;19.50;36.00;;;;;;5095085;28;19908;-68
2022/02/26 02:48:01;;;;;;;;;;;19.50;36.00;;;;;;5094962;28;19908;-67
2022/02/26 02:50:27;;;;;;;;;;;19.50;36.00;;;;;;5094839;28;20383;-68
2022/02/26 02:52:53;;;;;;;;;;;19.50;36.00;;;;;;5094807;28;19952;-68
2022/02/26 02:55:21;;;;;;;;;;;19.50;36.00;;;;;;5094489;28;19923;-68
2022/02/26 02:57:48;;;;;;;;;;;19.50;36.00;;;;;;5094858;28;19980;-68
2022/02/26 03:00:14;;;;;;;;;;;19.50;36.00;;;;;;5094411;28;19955;-68
2022/02/26 03:02:40;;;;;;;;;;;19.50;36.10;;;;;;5094456;28;19908;-67
2022/02/26 03:05:05;;;;;;;;;;;19.50;36.10;;;;;;5094752;28;19947;-68
2022/02/26 03:07:31;;;;;;;;;;;19.50;36.10;;;;;;5094726;28;19946;-67
2022/02/26 03:09:56;;;;;;;;;;;19.40;36.00;;;;;;5093422;28;19923;-67
2022/02/26 03:12:22;;;;;;;;;;;19.40;36.10;;;;;;5094652;28;19912;-68
2022/02/26 03:14:47;;;;;;;;;;;19.40;36.10;;;;;;5094512;28;19957;-68
2022/02/26 03:17:13;;;;;;;;;;;19.40;36.00;;;;;;5094400;28;19944;-67
2022/02/26 03:19:38;;;;;;;;;;;19.50;36.10;;;;;;5094671;28;19915;-67
2022/02/26 03:22:04;;;;;;;;;;;19.40;36.10;;;;;;5094475;28;19908;-68
2022/02/26 03:24:30;;;;;;;;;;;19.40;36.10;;;;;;5094300;28;20278;-68
2022/02/26 03:26:57;;;;;;;;;;;19.40;36.10;;;;;;5094439;28;19999;-69
2022/02/26 03:29:26;;;;;;;;;;;19.40;36.10;;;;;;5094443;28;19916;-68
2022/02/26 03:31:51;;;;;;;;;;;19.40;36.00;;;;;;5094095;28;20065;-67
2022/02/26 03:34:19;;;;;;;;;;;19.40;36.10;;;;;;5094082;28;19974;-67
2022/02/26 03:36:45;;;;;;;;;;;19.40;36.10;;;;;;5094099;28;19923;-67
2022/02/26 03:39:11;;;;;;;;;;;19.40;36.10;;;;;;5093895;28;20248;-68
2022/02/26 03:41:36;;;;;;;;;;;19.40;36.10;;;;;;5075708;28;20417;-68
2022/02/26 03:44:02;;;;;;;;;;;19.40;36.10;;;;;;5094055;28;19916;-68
2022/02/26 03:46:28;;;;;;;;;;;19.40;36.10;;;;;;5093801;28;20327;-68
2022/02/26 03:48:53;;;;;;;;;;;19.40;36.10;;;;;;5093745;28;20018;-68
2022/02/26 03:51:18;;;;;;;;;;;19.40;36.10;;;;;;5093860;28;20360;-67
2022/02/26 03:53:44;;;;;;;;;;;19.40;36.10;;;;;;5093530;28;19915;-67
2022/02/26 03:56:09;;;;;;;;;;;19.40;36.10;;;;;;5093485;28;19915;-67
2022/02/26 03:58:35;;;;;;;;;;;19.40;36.10;;;;;;5093445;28;19908;-67
2022/02/26 04:01:00;;;;;;;;;;;19.40;36.10;;;;;;5093401;28;19955;-67
2022/02/26 04:03:26;;;;;;;;;;;19.40;36.10;;;;;;5093625;28;20343;-67
2022/02/26 04:05:51;;;;;;;;;;;19.40;36.10;;;;;;5093385;28;20014;-67
2022/02/26 04:08:17;;;;;;;;;;;19.40;36.10;;;;;;5093188;28;19908;-67
2022/02/26 04:10:42;;;;;;;;;;;19.40;36.10;;;;;;5093634;28;19912;-68
2022/02/26 04:13:08;;;;;;;;;;;19.30;36.10;;;;;;5093374;28;19919;-68
2022/02/26 04:15:33;;;;;;;;;;;19.30;36.10;;;;;;5093373;28;19908;-67
2022/02/26 04:17:58;;;;;;;;;;;19.30;36.10;;;;;;5093215;28;19908;-68
2022/02/26 04:20:24;;;;;;;;;;;19.30;36.10;;;;;;5093058;28;19912;-68
2022/02/26 04:22:49;;;;;;;;;;;19.30;36.10;;;;;;5093101;28;19916;-68
2022/02/26 04:25:15;;;;;;;;;;;19.30;36.10;;;;;;5093349;28;19908;-67
2022/02/26 04:27:40;;;;;;;;;;;19.30;36.10;;;;;;5093375;28;19908;-68
2022/02/26 04:30:08;;;;;;;;;;;19.30;36.10;;;;;;5074783;28;19916;-66
2022/02/26 04:32:34;;;;;;;;;;;19.30;36.10;;;;;;5093049;28;19908;-68
2022/02/26 04:34:59;;;;;;;;;;;19.30;36.10;;;;;;5093167;28;19961;-68
2022/02/26 04:37:25;;;;;;;;;;;19.30;36.10;;;;;;5093009;28;20401;-68
2022/02/26 04:39:51;;;;;;;;;;;19.30;36.10;;;;;;5093147;28;19955;-68
2022/02/26 04:42:17;;;;;;;;;;;19.30;36.20;;;;;;5092958;28;20014;-66
2022/02/26 04:44:42;;;;;;;;;;;19.30;36.10;;;;;;5092735;28;19915;-68
2022/02/26 04:47:08;;;;;;;;;;;19.20;36.10;;;;;;5092854;28;19916;-68
2022/02/26 04:49:33;;;;;;;;;;;19.20;36.10;;;;;;5092565;28;19969;-66
2022/02/26 04:51:59;;;;;;;;;;;19.20;36.10;;;;;;5092550;28;20010;-67
2022/02/26 04:54:24;;;;;;;;;;;19.20;36.10;;;;;;5092655;28;19908;-68
2022/02/26 04:56:50;;;;;;;;;;;19.20;36.10;;;;;;5092944;28;20358;-68
2022/02/26 04:59:15;;;;;;;;;;;19.20;36.10;;;;;;5092690;28;20388;-66
2022/02/26 05:01:41;;;;;;;;;;;19.20;36.10;;;;;;5092688;28;20332;-68
2022/02/26 05:04:06;;;;;;;;;;;19.20;36.10;;;;;;5092778;28;19908;-68
2022/02/26 05:06:32;;;;;;;;;;;19.20;36.10;;;;;;5092748;28;19908;-67
2022/02/26 05:08:57;;;;;;;;;;;19.20;36.10;;;;;;5092846;28;19912;-68
2022/02/26 05:11:22;;;;;;;;;;;19.20;36.10;;;;;;5092925;28;20260;-68
2022/02/26 05:13:48;;;;;;;;;;;19.20;36.10;;;;;;5092769;28;19912;-66
2022/02/26 05:16:13;;;;;;;;;;;19.20;36.10;;;;;;5093110;28;19908;-66
2022/02/26 05:18:40;;;;;;;;;;;19.20;36.10;;;;;;5092827;28;20252;-68
2022/02/26 05:21:05;;;;;;;;;;;19.20;36.10;;;;;;5092739;28;19908;-67
2022/02/26 05:23:31;;;;;;;;;;;19.20;36.00;;;;;;5092677;28;19908;-68
2022/02/26 05:25:56;;;;;;;;;;;19.30;36.00;;;;;;5092739;28;19915;-68
2022/02/26 05:28:22;;;;;;;;;;;19.30;35.90;;;;;;5092580;28;19915;-67
2022/02/26 05:30:47;;;;;;;;;;;19.30;35.90;;;;;;5074360;28;19935;-68
2022/02/26 05:33:13;;;;;;;;;;;19.30;35.90;;;;;;5095567;28;20382;-69
2022/02/26 05:35:38;;;;;;;;;;;19.40;35.90;;;;;;5096371;28;19947;-68
2022/02/26 05:38:04;;;;;;;;;;;19.40;35.90;;;;;;5078279;28;19908;-68
2022/02/26 05:40:29;;;;;;;;;;;19.40;35.90;;;;;;5096649;28;19931;-68
2022/02/26 05:42:55;;;;;;;;;;;19.40;35.80;;;;;;5096582;28;19961;-67
2022/02/26 05:45:20;;;;;;;;;;;19.40;35.80;;;;;;5096570;28;19969;-68
2022/02/26 05:47:46;;;;;;;;;;;19.40;35.80;;;;;;5096530;28;19908;-68
2022/02/26 05:50:13;;;;;;;;;;;19.50;35.80;;;;;;5096360;28;19920;-68
2022/02/26 05:52:38;;;;;;;;;;;19.50;35.80;;;;;;5096395;28;20378;-68
2022/02/26 05:55:04;;;;;;;;;;;19.50;35.80;;;;;;5096446;28;19955;-68
2022/02/26 05:57:30;;;;;;;;;;;19.50;35.90;;;;;;5096295;28;19912;-68
2022/02/26 05:59:55;;;;;;;;;;;19.50;35.90;;;;;;5096138;28;19967;-68
2022/02/26 06:02:20;;;;;;;;;;;19.50;35.80;;;;;;5096232;28;19908;-68
2022/02/26 06:04:46;;;;;;;;;;;19.50;35.90;;;;;;5096101;28;19916;-68
2022/02/26 06:07:12;;;;;;;;;;;19.50;35.80;;;;;;5096337;28;19915;-68
2022/02/26 06:09:37;;;;;;;;;;;19.50;35.80;;;;;;5096075;28;20295;-68
2022/02/26 06:12:03;;;;;;;;;;;19.50;35.70;;;;;;5096102;28;20379;-68
2022/02/26 06:14:28;;;;;;;;;;;19.50;35.80;;;;;;5095930;28;19916;-68
2022/02/26 06:16:53;;;;;;;;;;;19.60;35.70;;;;;;5095664;28;19923;-68
2022/02/26 06:19:19;;;;;;;;;;;19.60;35.70;;;;;;5095622;28;19946;-67
2022/02/26 06:21:47;;;;;;;;;;;19.60;35.70;;;;;;5095572;28;19908;-68
2022/02/26 06:24:14;;;;;;;;;;;19.60;35.70;;;;;;5077418;28;19912;-68
2022/02/26 06:26:39;;;;;;;;;;;19.60;35.70;;;;;;5095699;28;19915;-68
2022/02/26 06:29:04;;;;;;;;;;;19.60;35.60;;;;;;5095736;28;20002;-68
2022/02/26 06:31:30;;;;;;;;;;;19.70;35.60;;;;;;5095891;28;19919;-68
2022/02/26 06:33:55;;;;;;;;;;;19.70;35.60;;;;;;5095375;28;20041;-68
2022/02/26 06:36:21;;;;;;;;;;;19.70;35.60;;;;;;5095509;28;19908;-68
2022/02/26 06:38:46;;;;;;;;;;;19.70;35.60;;;;;;5095366;28;19908;-68
2022/02/26 06:41:12;;;;;;;;;;;19.70;35.60;;;;;;5095198;28;19953;-67
2022/02/26 06:43:38;;;;;;;;;;;19.70;35.50;;;;;;5095099;28;19930;-67
2022/02/26 06:46:05;;;;;;;;;;;19.70;35.70;;;;;;5095192;28;19946;-68
2022/02/26 06:48:30;;;;;;;;;;;19.70;35.70;;;;;;5095274;28;20008;-67
2022/02/26 06:50:55;;;;;;;;;;;19.80;35.60;;;;;;5095267;28;20382;-68
2022/02/26 06:53:21;;;;;;;;;;;19.80;35.60;;;;;;5095184;28;19908;-68
2022/02/26 06:55:46;;;;;;;;;;;19.80;35.70;;;;;;5095144;28;19909;-67
2022/02/26 06:58:12;;;;;;;;;;;19.70;35.60;;;;;;5095226;28;19908;-68
2022/02/26 07:00:37;;;;;;;;;;;19.80;35.40;;;;;;5094702;28;20372;-68
2022/02/26 07:03:03;;;;;;;;;;;19.80;35.50;;;;;;5095035;28;20355;-67
2022/02/26 07:05:28;;;;;;;;;;;19.80;35.50;;;;;;5076840;28;19934;-68
2022/02/26 07:07:53;;;;;;;;;;;19.80;35.40;;;;;;5095015;28;19916;-68
2022/02/26 07:10:19;;;;;;;;;;;19.80;35.50;;;;;;5094583;28;20397;-67
2022/02/26 07:12:44;;;;;;;;;;;19.80;35.50;;;;;;5094724;28;20332;-68
2022/02/26 07:15:10;;;;;;;;;;;19.80;35.30;;;;;;5094638;28;19908;-68
2022/02/26 07:17:35;;;;;;;;;;;19.90;35.50;;;;;;5094679;28;20364;-68
2022/02/26 07:20:01;;;;;;;;;;;19.90;35.40;;;;;;5094607;28;20006;-68
2022/02/26 07:22:26;;;;;;;;;;;19.90;35.50;;;;;;5094745;28;19908;-68
2022/02/26 07:24:52;;;;;;;;;;;19.90;35.50;;;;;;5094727;28;19909;-68
2022/02/26 07:27:18;;;;;;;;;;;19.90;35.50;;;;;;5094337;28;19908;-68
2022/02/26 07:29:44;;;;;;;;;;;19.90;35.50;;;;;;5094254;28;19994;-67
2022/02/26 07:32:09;;;;;;;;;;;19.90;35.40;;;;;;5094751;28;19908;-68
2022/02/26 07:34:35;;;;;;;;;;;19.90;35.40;;;;;;5094012;28;20004;-67
2022/02/26 07:37:01;;;;;;;;;;;19.90;35.30;;;;;;5094370;28;20356;-68
2022/02/26 07:39:26;;;;;;;;;;;20.00;35.40;;;;;;5094294;28;20004;-68
2022/02/26 07:41:52;;;;;;;;;;;20.00;35.40;;;;;;5094137;28;19909;-67
2022/02/26 07:44:18;;;;;;;;;;;20.00;35.30;;;;;;5093955;28;19908;-67
2022/02/26 07:46:43;;;;;;;;;;;20.00;35.30;;;;;;5093985;28;19908;-67
2022/02/26 07:49:09;;;;;;;;;;;20.00;35.40;;;;;;5093794;28;20305;-68
2022/02/26 07:51:34;;;;;;;;;;;20.00;35.20;;;;;;5094078;28;19911;-68
2022/02/26 07:54:00;;;;;;;;;;;20.00;35.20;;;;;;5093806;28;19908;-68
2022/02/26 07:56:25;;;;;;;;;;;20.00;35.30;;;;;;5093430;28;19956;-68
2022/02/26 07:58:51;;;;;;;;;;;20.00;35.40;;;;;;5093776;28;20352;-68
2022/02/26 08:01:17;;;;;;;;;;;20.00;35.20;;;;;;5075462;28;20257;-67
2022/02/26 08:03:43;;;;;;;;;;;20.00;35.40;;;;;;5093522;28;19912;-68
2022/02/26 08:06:08;;;;;;;;;;;20.00;35.30;;;;;;5093487;28;19926;-68
2022/02/26 08:08:34;;;;;;;;;;;20.10;35.30;;;;;;5093586;28;19908;-68
2022/02/26 08:11:00;;;;;;;;;;;20.10;35.30;;;;;;5093482;28;19995;-67
2022/02/26 08:13:25;;;;;;;;;;;20.10;35.20;;;;;;5093360;28;20258;-68
2022/02/26 08:15:51;;;;;;;;;;;20.10;35.30;;;;;;5093271;28;19965;-68
2022/02/26 08:18:17;;;;;;;;;;;20.10;35.20;;;;;;5093141;28;20360;-67
2022/02/26 08:20:42;;;;;;;;;;;20.10;35.20;;;;;;5074960;28;20002;-68
2022/02/26 08:23:08;;;;;;;;;;;20.10;35.10;;;;;;5093191;28;19943;-68
2022/02/26 08:25:34;;;;;;;;;;;20.10;35.20;;;;;;5093149;28;19953;-67
2022/02/26 08:28:00;;;;;;;;;;;20.10;35.30;;;;;;5092936;28;19961;-68
2022/02/26 08:30:25;;;;;;;;;;;20.20;35.20;;;;;;5093038;28;20015;-67
2022/02/26 08:32:52;;;;;;;;;;;20.10;35.40;;;;;;5092844;28;19947;-67
2022/02/26 08:35:18;;;;;;;;;;;20.10;35.30;;;;;;5093137;28;20419;-67
2022/02/26 08:37:46;;;;;;;;;;;20.10;35.40;;;;;;5093203;28;20019;-68
2022/02/26 08:40:12;;;;;;;;;;;20.20;35.20;;;;;;5092749;28;19958;-67
2022/02/26 08:42:38;;;;;;;;;;;20.20;35.40;;;;;;5092726;28;19918;-67
2022/02/26 08:45:05;;;;;;;;;;;20.20;35.20;;;;;;5092674;28;19943;-67
2022/02/26 08:47:30;;;;;;;;;;;20.20;35.30;;;;;;5092824;28;19999;-67
2022/02/26 08:49:57;;;;;;;;;;;20.20;35.20;;;;;;5093047;28;20343;-67
2022/02/26 08:52:22;;;;;;;;;;;20.20;35.20;;;;;;5093031;28;19908;-67
2022/02/26 08:54:48;;;;;;;;;;;20.30;35.10;;;;;;5093187;28;19908;-67
2022/02/26 08:57:13;;;;;;;;;;;20.30;35.20;;;;;;5093195;28;20028;-66
2022/02/26 08:59:39;;;;;;;;;;;20.30;35.10;;;;;;5092800;28;20363;-66
2022/02/26 09:02:04;;;;;;;;;;;20.30;35.20;;;;;;5093034;28;20018;-67
2022/02/26 09:04:30;;;;;;;;;;;20.20;35.10;;;;;;5093270;28;20005;-66
2022/02/26 09:06:55;;;;;;;;;;;20.30;35.10;;;;;;5093947;28;19939;-67
2022/02/26 09:09:21;;;;;;;;;;;20.30;35.10;;;;;;5097202;28;19922;-67
2022/02/26 09:11:46;;;;;;;;;;;20.30;35.10;;;;;;5097107;28;19990;-66
2022/02/26 09:14:12;;;;;;;;;;;20.30;35.10;;;;;;5097169;28;19954;-67
2022/02/26 09:16:37;;;;;;;;;;;20.30;35.10;;;;;;5097126;28;20202;-66
2022/02/26 09:19:03;;;;;;;;;;;20.30;35.20;;;;;;5096976;28;19915;-66
2022/02/26 09:21:29;;;;;;;;;;;20.40;35.20;;;;;;5096922;28;19918;-66
2022/02/26 09:23:54;;;;;;;;;;;20.30;35.00;;;;;;5096955;28;19908;-67
2022/02/26 09:26:20;;;;;;;;;;;20.30;35.20;;;;;;5096907;28;19948;-67
2022/02/26 09:28:46;;;;;;;;;;;20.30;35.20;;;;;;5096878;28;20480;-67
2022/02/26 09:31:12;;;;;;;;;;;20.30;35.10;;;;;;5096656;28;19912;-66
2022/02/26 09:33:38;;;;;;;;;;;20.40;35.10;;;;;;5096661;28;19931;-66
2022/02/26 09:36:04;;;;;;;;;;;20.30;35.10;;;;;;5096690;28;19915;-67
2022/02/26 09:38:30;;;;;;;;;;;20.40;35.20;;;;;;5096815;28;19915;-67
2022/02/26 09:40:56;;;;;;;;;;;20.40;35.10;;;;;;5096539;28;19909;-68
2022/02/26 09:43:22;;;;;;;;;;;20.40;35.00;;;;;;5096153;28;19931;-66
2022/02/26 09:45:49;;;;;;;;;;;20.40;35.20;;;;;;5096458;28;19916;-66
2022/02/26 09:48:14;;;;;;;;;;;20.40;35.00;;;;;;5078064;28;20275;-67
2022/02/26 09:50:40;;;;;;;;;;;20.40;35.10;;;;;;5096454;28;19916;-66
2022/02/26 09:53:06;;;;;;;;;;;20.40;35.10;;;;;;5096194;28;19908;-66
2022/02/26 09:55:32;;;;;;;;;;;20.50;35.00;;;;;;5096063;28;19946;-66
2022/02/26 09:57:58;;;;;;;;;;;20.40;35.10;;;;;;5096180;28;19908;-66
2022/02/26 10:00:24;;;;;;;;;;;20.50;35.00;;;;;;5095361;28;20402;-66
2022/02/26 10:02:49;;;;;;;;;;;20.50;35.10;;;;;;5095182;28;19953;-66
2022/02/26 10:05:18;;;;;;;;;;;20.50;35.10;;;;;;5094832;28;20360;-66
2022/02/26 10:07:44;;;;;;;;;;;20.50;35.10;;;;;;5094906;28;19912;-66
2022/02/26 10:10:23;;;;;;;;;;;20.50;35.00;;;;;;5094879;28;19964;-66
2022/02/26 10:12:52;;;;;;;;;;;20.50;35.00;;;;;;5094956;28;20103;-68
2022/02/26 10:15:35;;;;;;;;;;;20.50;35.10;;;;;;5095066;28;20044;-66
2022/02/26 10:18:11;;;;;;;;;;;20.50;35.20;;;;;;5094595;28;19908;-66
2022/02/26 10:21:04;;;;;;;;;;;20.50;35.10;;;;;;5094719;28;19915;-66
2022/02/26 10:23:30;;;;;;;;;;;20.50;35.10;;;;;;5091093;28;19908;-66
2022/02/26 10:26:05;;;;;;;;;;;20.50;35.20;;;;;;5094935;28;19908;-66
2022/02/26 10:28:33;;;;;;;;;;;20.60;35.10;;;;;;5094465;28;19954;-67
2022/02/26 10:31:01;;;;;;;;;;;20.50;35.20;;;;;;5094519;28;19916;-66
2022/02/26 10:33:28;;;;;;;;;;;20.50;35.10;;;;;;5094526;28;20257;-67
2022/02/26 10:35:55;;;;;;;;;;;20.50;35.10;;;;;;5094176;28;20303;-67
2022/02/26 10:38:20;;;;;;;;;;;20.60;35.10;;;;;;5094266;28;20367;-66
2022/02/26 10:40:47;;;;;;;;;;;20.60;35.00;;;;;;5094125;28;19908;-65
2022/02/26 10:43:13;;;;;;;;;;;20.60;35.00;;;;;;5094128;28;19995;-66
2022/02/26 10:45:38;;;;;;;;;;;20.60;35.00;;;;;;5093853;28;19955;-66
2022/02/26 10:48:04;;;;;;;;;;;20.60;35.00;;;;;;5093832;28;19916;-66
2022/02/26 10:50:33;;;;;;;;;;;20.70;35.00;;;;;;5093528;28;19993;-66
2022/02/26 10:53:05;;;;;;;;;;;20.70;35.00;;;;;;5093888;28;20011;-67
2022/02/26 10:56:02;;;;;;;;;;;20.70;35.00;;;;;;5093585;28;19915;-67
2022/02/26 10:58:28;;;;;;;;;;;20.70;35.00;;;;;;5073852;28;19912;-66
2022/02/26 11:01:00;;;;;;;;;;;20.70;34.90;;;;;;5033083;28;1719539;-67
2022/02/26 11:03:26;;;;;;;;;;;20.70;35.00;;;;;;5094898;28;19966;-67
2022/02/26 11:05:52;;;;;;;;;;;20.80;35.00;;;;;;5095033;28;19912;-67
2022/02/26 11:08:18;;;;;;;;;;;20.80;34.90;;;;;;5094503;28;19908;-66
2022/02/26 11:10:45;;;;;;;;;;;20.80;34.90;;;;;;5094288;28;20459;-66
2022/02/26 11:13:11;;;;;;;;;;;20.80;34.90;;;;;;5094162;28;20367;-65
2022/02/26 11:15:37;;;;;;;;;;;20.90;34.90;;;;;;5094303;28;19908;-66
2022/02/26 11:18:04;;;;;;;;;;;20.90;34.90;;;;;;5094040;28;19916;-66
2022/02/26 11:20:30;;;;;;;;;;;21.00;34.80;;;;;;5094153;28;20385;-66
2022/02/26 11:22:56;;;;;;;;;;;21.00;34.80;;;;;;5094238;28;19915;-67
2022/02/26 11:25:22;;;;;;;;;;;21.00;34.80;;;;;;5094322;28;19908;-67
2022/02/26 11:27:48;;;;;;;;;;;21.10;34.50;;;;;;5094116;28;20359;-66
2022/02/26 11:30:17;;;;;;;;;;;21.20;34.50;;;;;;5093377;28;19970;-67
2022/02/26 11:32:43;;;;;;;;;;;21.20;34.60;;;;;;5093944;28;20340;-66
2022/02/26 11:35:16;;;;;;;;;;;21.30;34.50;;;;;;5093897;28;19965;-67
2022/02/26 11:37:42;;;;;;;;;;;21.40;34.50;;;;;;5094062;28;19968;-66
2022/02/26 11:40:12;;;;;;;;;;;21.40;34.30;;;;;;5093975;28;19912;-65
2022/02/26 11:42:38;;;;;;;;;;;21.50;34.40;;;;;;5093778;28;20323;-67
2022/02/26 11:45:08;;;;;;;;;;;21.40;34.40;;;;;;5094023;28;20406;-67
2022/02/26 11:47:36;;;;;;;;;;;21.50;34.20;;;;;;5093521;28;19954;-67
2022/02/26 11:50:07;;;;;;;;;;;21.50;34.30;;;;;;5094026;28;20367;-67
2022/02/26 11:52:35;;;;;;;;;;;21.60;34.30;;;;;;5093761;28;19966;-67
2022/02/26 11:55:01;;;;;;;;;;;21.70;34.20;;;;;;5093326;28;19908;-67
2022/02/26 11:57:29;;;;;;;;;;;21.70;34.20;;;;;;5093338;28;20513;-67
2022/02/26 12:00:07;;;;;;;;;;;21.80;34.10;;;;;;5093389;28;19920;-66
2022/02/26 12:02:33;;;;;;;;;;;21.80;34.00;;;;;;5093270;28;19944;-67
2022/02/26 12:04:59;;;;;;;;;;;21.90;34.00;;;;;;5074963;28;20390;-67
2022/02/26 12:07:30;;;;;;;;;;;21.90;34.00;;;;;;5093052;28;19961;-67
2022/02/26 12:10:03;;;;;;;;;;;21.90;34.00;;;;;;5093324;28;19919;-68
2022/02/26 12:12:29;;;;;;;;;;;22.00;33.90;;;;;;5093480;28;19908;-67
2022/02/26 12:14:57;;;;;;;;;;;22.00;33.90;;;;;;5093430;28;19908;-67
2022/02/26 12:17:23;;;;;;;;;;;22.00;33.80;;;;;;5092993;28;20391;-67
2022/02/26 12:19:51;;;;;;;;;;;22.00;34.00;;;;;;5092788;28;19950;-66
2022/02/26 12:22:17;;;;;;;;;;;22.00;34.00;;;;;;5093072;28;19934;-67
2022/02/26 12:24:49;;;;;;;;;;;22.00;34.00;;;;;;5093009;28;19916;-66
2022/02/26 12:27:15;;;;;;;;;;;22.00;34.10;;;;;;5093052;28;19912;-66
2022/02/26 12:29:43;;;;;;;;;;;22.00;34.10;;;;;;5093027;28;20429;-67
2022/02/26 12:32:18;;;;;;;;;;;22.00;34.20;;;;;;5093117;28;19916;-67
2022/02/26 12:34:52;;;;;;;;;;;21.90;34.20;;;;;;5092827;28;19912;-68
2022/02/26 12:37:18;;;;;;;;;;;21.90;34.30;;;;;;5074658;28;19920;-67
2022/02/26 12:39:45;;;;;;;;;;;21.90;34.30;;;;;;5092805;28;19920;-67
2022/02/26 12:42:16;;;;;;;;;;;21.90;34.30;;;;;;5092696;28;19908;-67
2022/02/26 12:44:42;;;;;;;;;;;21.90;34.30;;;;;;5092899;28;20299;-67
2022/02/26 12:47:08;;;;;;;;;;;21.90;34.30;;;;;;5092840;28;19908;-67
2022/02/26 12:49:34;;;;;;;;;;;21.80;34.30;;;;;;5092680;28;19919;-67
2022/02/26 12:52:00;;;;;;;;;;;21.80;34.30;;;;;;5092806;28;19912;-66
2022/02/26 12:54:29;;;;;;;;;;;21.80;34.40;;;;;;5092859;28;20398;-67
2022/02/26 12:56:55;;;;;;;;;;;21.70;34.40;;;;;;5093119;28;19915;-67
2022/02/26 12:59:20;;;;;;;;;;;21.70;34.50;;;;;;5092764;28;20294;-67
2022/02/26 13:01:47;;;;;;;;;;;21.70;34.30;;;;;;5093138;28;19970;-67
2022/02/26 13:04:19;;;;;;;;;;;21.70;34.60;;;;;;5092638;28;20380;-67
2022/02/26 13:06:52;;;;;;;;;;;21.60;34.40;;;;;;5092945;28;19961;-67
2022/02/26 13:09:18;;;;;;;;;;;21.60;34.60;;;;;;5093012;28;19922;-67
2022/02/26 13:11:47;;;;;;;;;;;21.60;34.60;;;;;;5092900;28;20231;-67
2022/02/26 13:14:13;;;;;;;;;;;21.60;34.50;;;;;;5092739;28;19913;-67
2022/02/26 13:16:39;;;;;;;;;;;21.50;34.60;;;;;;5092911;28;19912;-67
2022/02/26 13:19:04;;;;;;;;;;;21.50;34.50;;;;;;5092881;28;19926;-66
2022/02/26 13:21:36;;;;;;;;;;;21.50;34.60;;;;;;5092900;28;19915;-66
2022/02/26 13:24:03;;;;;;;;;;;21.50;34.60;;;;;;5092536;28;20316;-67
2022/02/26 13:26:28;;;;;;;;;;;21.50;34.60;;;;;;5092409;28;19950;-66
2022/02/26 13:28:54;;;;;;;;;;;21.50;34.60;;;;;;5092869;28;19951;-67
2022/02/26 13:31:20;;;;;;;;;;;21.50;34.50;;;;;;5092411;28;19916;-67
2022/02/26 13:33:45;;;;;;;;;;;21.50;34.40;;;;;;5092722;28;20003;-67
2022/02/26 13:36:12;;;;;;;;;;;21.50;34.50;;;;;;5092465;28;19953;-67
2022/02/26 13:38:37;;;;;;;;;;;21.50;34.50;;;;;;5092150;28;19998;-67
2022/02/26 13:41:09;;;;;;;;;;;21.50;34.50;;;;;;5092302;28;20016;-67
2022/02/26 13:43:35;;;;;;;;;;;21.50;34.50;;;;;;5092529;28;19927;-67
2022/02/26 13:46:00;;;;;;;;;;;21.50;34.50;;;;;;5092769;28;20284;-67
2022/02/26 13:48:26;;;;;;;;;;;21.50;34.40;;;;;;5092486;28;19990;-67
2022/02/26 13:50:52;;;;;;;;;;;21.50;34.50;;;;;;5092190;28;19961;-67
2022/02/26 13:53:18;;;;;;;;;;;21.50;34.50;;;;;;5093832;28;19998;-67
2022/02/26 13:55:51;;;;;;;;;;;21.40;34.40;;;;;;5095934;28;19962;-67
2022/02/26 13:58:27;;;;;;;;;;;21.40;34.50;;;;;;5096145;28;19908;-67
2022/02/26 14:01:10;;;;;;;;;;;21.40;34.50;;;;;;5095862;28;19924;-66
2022/02/26 14:03:36;;;;;;;;;;;21.40;34.50;;;;;;5096134;28;19908;-67
2022/02/26 14:06:05;;;;;;;;;;;21.40;34.40;;;;;;5095833;28;19955;-66
2022/02/26 14:08:31;;;;;;;;;;;21.30;34.50;;;;;;5096137;28;19995;-67
2022/02/26 14:10:57;;;;;;;;;;;21.40;34.50;;;;;;5095839;28;19994;-68
2022/02/26 14:13:23;;;;;;;;;;;21.40;34.30;;;;;;5096019;28;19985;-65